createdAt,value
2018-04-14T00:00:21.157Z,1009.07
2018-04-14T00:01:21.135Z,1009.05
2018-04-14T00:02:21.053Z,1009.04
2018-04-14T00:03:21.251Z,1009.06
2018-04-14T00:04:21.087Z,1009.08
2018-04-14T00:05:20.970Z,1009.12
2018-04-14T00:06:20.984Z,1009.13
2018-04-14T00:07:20.967Z,1009.10
2018-04-14T00:08:20.885Z,1009.12
2018-04-14T00:09:20.971Z,1009.10
2018-04-14T00:10:20.887Z,1009.12
2018-04-14T00:11:20.840Z,1009.16
2018-04-14T00:12:20.879Z,1009.18
2018-04-14T00:13:20.849Z,1009.13
2018-04-14T00:14:20.733Z,1009.15
2018-04-14T00:15:20.805Z,1009.14
2018-04-14T00:16:20.666Z,1009.18
2018-04-14T00:17:20.721Z,1009.19
2018-04-14T00:18:20.714Z,1009.20
2018-04-14T00:19:20.586Z,1009.21
2018-04-14T00:20:20.619Z,1009.19
2018-04-14T00:21:20.661Z,1009.21
2018-04-14T00:22:20.553Z,1009.22
2018-04-14T00:23:20.621Z,1009.19
2018-04-14T00:24:20.464Z,1009.26
2018-04-14T00:25:20.471Z,1009.28
2018-04-14T00:26:20.402Z,1009.30
2018-04-14T00:27:20.366Z,1009.31
2018-04-14T00:28:20.397Z,1009.33
2018-04-14T00:29:20.498Z,1009.33
2018-04-14T00:30:20.314Z,1009.35
2018-04-14T00:31:20.307Z,1009.34
2018-04-14T00:32:20.224Z,1009.37
2018-04-14T00:33:20.319Z,1009.37
2018-04-14T00:34:20.161Z,1009.38
2018-04-14T00:35:20.195Z,1009.43
2018-04-14T00:36:20.180Z,1009.39
2018-04-14T00:37:20.071Z,1009.45
2018-04-14T00:38:20.107Z,1009.37
2018-04-14T00:39:20.051Z,1009.41
2018-04-14T00:40:19.989Z,1009.39
2018-04-14T00:41:20.057Z,1009.39
2018-04-14T00:42:19.977Z,1009.40
2018-04-14T00:43:19.971Z,1009.39
2018-04-14T00:44:19.953Z,1009.41
2018-04-14T00:45:19.890Z,1009.37
2018-04-14T00:46:19.824Z,1009.37
2018-04-14T00:47:19.849Z,1009.40
2018-04-14T00:48:19.806Z,1009.39
2018-04-14T00:49:19.840Z,1009.42
2018-04-14T00:50:19.819Z,1009.41
2018-04-14T00:51:19.757Z,1009.41
2018-04-14T00:52:19.658Z,1009.43
2018-04-14T00:53:19.744Z,1009.46
2018-04-14T00:54:19.687Z,1009.43
2018-04-14T00:55:19.577Z,1009.48
2018-04-14T00:56:19.596Z,1009.46
2018-04-14T00:57:19.510Z,1009.47
2018-04-14T00:58:19.564Z,1009.49
2018-04-14T00:59:19.599Z,1009.54
2018-04-14T01:00:19.436Z,1009.54
2018-04-14T01:01:19.513Z,1009.58
2018-04-14T01:02:19.387Z,1009.59
2018-04-14T01:03:19.445Z,1009.57
2018-04-14T01:04:19.320Z,1009.61
2018-04-14T01:05:19.346Z,1009.60
2018-04-14T01:06:19.323Z,1009.60
2018-04-14T01:07:19.229Z,1009.63
2018-04-14T01:08:19.263Z,1009.63
2018-04-14T01:09:19.373Z,1009.64
2018-04-14T01:10:19.154Z,1009.64
2018-04-14T01:11:19.270Z,1009.69
2018-04-14T01:12:19.156Z,1009.66
2018-04-14T01:13:19.098Z,1009.67
2018-04-14T01:14:19.044Z,1009.67
2018-04-14T01:15:19.179Z,1009.70
2018-04-14T01:16:19.133Z,1009.63
2018-04-14T01:17:18.965Z,1009.64
2018-04-14T01:18:18.985Z,1009.65
2018-04-14T01:19:18.905Z,1009.64
2018-04-14T01:20:18.990Z,1009.61
2018-04-14T01:21:18.934Z,1009.64
2018-04-14T01:22:18.899Z,1009.62
2018-04-14T01:23:18.838Z,1009.62
2018-04-14T01:24:18.958Z,1009.64
2018-04-14T01:25:18.728Z,1009.67
2018-04-14T01:26:18.769Z,1009.69
2018-04-14T01:27:18.697Z,1009.72
2018-04-14T01:28:18.775Z,1009.72
2018-04-14T01:29:18.678Z,1009.73
2018-04-14T01:30:18.604Z,1009.75
2018-04-14T01:31:18.708Z,1009.76
2018-04-14T01:32:18.587Z,1009.75
2018-04-14T01:33:18.585Z,1009.73
2018-04-14T01:34:18.513Z,1009.72
2018-04-14T01:35:18.537Z,1009.76
2018-04-14T01:36:18.512Z,1009.78
2018-04-14T01:37:18.492Z,1009.76
2018-04-14T01:38:18.393Z,1009.73
2018-04-14T01:39:18.435Z,1009.75
2018-04-14T01:40:18.315Z,1009.73
2018-04-14T01:41:18.334Z,1009.73
2018-04-14T01:42:18.682Z,1009.69
2018-04-14T01:43:18.302Z,1009.68
2018-04-14T01:44:18.207Z,1009.71
2018-04-14T01:45:18.186Z,1009.68
2018-04-14T01:46:18.226Z,1009.67
2018-04-14T01:47:18.123Z,1009.63
2018-04-14T01:48:18.249Z,1009.70
2018-04-14T01:49:18.078Z,1009.68
2018-04-14T01:50:18.127Z,1009.67
2018-04-14T01:51:18.077Z,1009.71
2018-04-14T01:52:18.092Z,1009.70
2018-04-14T01:53:18.002Z,1009.68
2018-04-14T01:54:18.035Z,1009.68
2018-04-14T01:55:17.910Z,1009.67
2018-04-14T01:56:17.867Z,1009.68
2018-04-14T01:57:17.949Z,1009.69
2018-04-14T01:58:17.848Z,1009.66
2018-04-14T01:59:17.797Z,1009.64
2018-04-14T02:00:17.807Z,1009.56
2018-04-14T02:01:17.799Z,1009.63
2018-04-14T02:02:17.753Z,1009.66
2018-04-14T02:03:17.673Z,1009.62
2018-04-14T02:04:17.682Z,1009.63
2018-04-14T02:05:17.690Z,1009.66
2018-04-14T02:06:17.591Z,1009.61
2018-04-14T02:07:17.569Z,1009.63
2018-04-14T02:08:17.757Z,1009.66
2018-04-14T02:09:17.508Z,1009.70
2018-04-14T02:10:17.518Z,1009.64
2018-04-14T02:11:17.452Z,1009.69
2018-04-14T02:12:17.564Z,1009.68
2018-04-14T02:13:17.427Z,1009.72
2018-04-14T02:14:17.431Z,1009.72
2018-04-14T02:15:17.443Z,1009.74
2018-04-14T02:16:17.317Z,1009.73
2018-04-14T02:17:17.353Z,1009.72
2018-04-14T02:18:17.264Z,1009.73
2018-04-14T02:19:17.321Z,1009.76
2018-04-14T02:20:17.197Z,1009.73
2018-04-14T02:21:17.170Z,1009.73
2018-04-14T02:22:17.141Z,1009.72
2018-04-14T02:23:17.122Z,1009.72
2018-04-14T02:24:17.083Z,1009.70
2018-04-14T02:25:17.060Z,1009.68
2018-04-14T02:26:17.026Z,1009.70
2018-04-14T02:27:17.009Z,1009.65
2018-04-14T02:28:16.975Z,1009.61
2018-04-14T02:29:16.946Z,1009.63
2018-04-14T02:30:16.925Z,1009.64
2018-04-14T02:31:16.891Z,1009.61
2018-04-14T02:32:16.869Z,1009.61
2018-04-14T02:33:16.846Z,1009.59
2018-04-14T02:34:16.805Z,1009.60
2018-04-14T02:35:16.774Z,1009.62
2018-04-14T02:36:16.748Z,1009.58
2018-04-14T02:37:16.719Z,1009.63
2018-04-14T02:38:16.695Z,1009.64
2018-04-14T02:39:16.672Z,1009.70
2018-04-14T02:40:16.640Z,1009.67
2018-04-14T02:41:16.623Z,1009.70
2018-04-14T02:42:16.588Z,1009.70
2018-04-14T02:43:16.554Z,1009.70
2018-04-14T02:44:16.524Z,1009.74
2018-04-14T02:45:16.497Z,1009.72
2018-04-14T02:46:16.470Z,1009.75
2018-04-14T02:47:16.437Z,1009.71
2018-04-14T02:48:16.416Z,1009.73
2018-04-14T02:49:16.389Z,1009.74
2018-04-14T02:50:16.426Z,1009.75
2018-04-14T02:51:16.336Z,1009.76
2018-04-14T02:52:16.347Z,1009.79
2018-04-14T02:53:16.299Z,1009.78
2018-04-14T02:54:16.255Z,1009.77
2018-04-14T02:55:16.222Z,1009.78
2018-04-14T02:56:16.221Z,1009.71
2018-04-14T02:57:16.175Z,1009.74
2018-04-14T02:58:16.136Z,1009.74
2018-04-14T02:59:16.116Z,1009.75
2018-04-14T03:00:16.083Z,1009.75
2018-04-14T03:01:16.053Z,1009.72
2018-04-14T03:02:16.041Z,1009.75
2018-04-14T03:03:15.991Z,1009.74
2018-04-14T03:04:15.964Z,1009.75
2018-04-14T03:05:15.969Z,1009.76
2018-04-14T03:06:15.905Z,1009.78
2018-04-14T03:07:15.882Z,1009.76
2018-04-14T03:08:15.867Z,1009.77
2018-04-14T03:09:15.832Z,1009.77
2018-04-14T03:10:15.857Z,1009.79
2018-04-14T03:11:15.779Z,1009.83
2018-04-14T03:12:15.739Z,1009.86
2018-04-14T03:13:15.721Z,1009.88
2018-04-14T03:14:15.688Z,1009.89
2018-04-14T03:15:15.655Z,1009.89
2018-04-14T03:16:15.632Z,1009.92
2018-04-14T03:17:15.612Z,1009.95
2018-04-14T03:18:15.574Z,1009.96
2018-04-14T03:19:15.541Z,1009.98
2018-04-14T03:20:15.518Z,1009.98
2018-04-14T03:21:15.490Z,1010.02
2018-04-14T03:22:15.466Z,1010.02
2018-04-14T03:23:15.437Z,1009.96
2018-04-14T03:24:15.416Z,1009.96
2018-04-14T03:25:15.380Z,1009.93
2018-04-14T03:26:15.358Z,1009.93
2018-04-14T03:27:15.324Z,1009.96
2018-04-14T03:28:15.302Z,1009.95
2018-04-14T03:29:15.266Z,1009.97
2018-04-14T03:30:15.243Z,1009.94
2018-04-14T03:31:15.237Z,1009.92
2018-04-14T03:32:15.184Z,1009.87
2018-04-14T03:33:15.149Z,1009.92
2018-04-14T03:34:15.120Z,1009.92
2018-04-14T03:35:15.091Z,1009.91
2018-04-14T03:36:15.069Z,1009.92
2018-04-14T03:37:15.040Z,1009.91
2018-04-14T03:38:15.007Z,1009.87
2018-04-14T03:39:14.984Z,1009.91
2018-04-14T03:40:14.966Z,1009.96
2018-04-14T03:41:14.928Z,1009.97
2018-04-14T03:42:14.902Z,1010.02
2018-04-14T03:43:14.871Z,1010.01
2018-04-14T03:44:14.844Z,1010.01
2018-04-14T03:45:14.816Z,1010.03
2018-04-14T03:46:14.794Z,1010.10
2018-04-14T03:47:14.762Z,1010.13
2018-04-14T03:48:14.743Z,1010.10
2018-04-14T03:49:14.705Z,1010.13
2018-04-14T03:50:14.676Z,1010.12
2018-04-14T03:51:14.645Z,1010.18
2018-04-14T03:52:14.631Z,1010.16
2018-04-14T03:53:14.615Z,1010.21
2018-04-14T03:54:14.574Z,1010.21
2018-04-14T03:55:14.541Z,1010.19
2018-04-14T03:56:14.501Z,1010.24
2018-04-14T03:57:14.477Z,1010.19
2018-04-14T03:58:14.469Z,1010.22
2018-04-14T03:59:14.420Z,1010.23
2018-04-14T04:00:14.390Z,1010.27
2018-04-14T04:01:14.418Z,1010.27
2018-04-14T04:02:14.349Z,1010.24
2018-04-14T04:03:14.311Z,1010.24
2018-04-14T04:04:14.292Z,1010.29
2018-04-14T04:05:14.255Z,1010.24
2018-04-14T04:06:14.259Z,1010.27
2018-04-14T04:07:14.218Z,1010.28
2018-04-14T04:08:14.173Z,1010.29
2018-04-14T04:09:14.146Z,1010.28
2018-04-14T04:10:14.157Z,1010.30
2018-04-14T04:11:14.080Z,1010.28
2018-04-14T04:12:14.064Z,1010.31
2018-04-14T04:13:14.032Z,1010.29
2018-04-14T04:14:14.013Z,1010.42
2018-04-14T04:15:13.986Z,1010.43
2018-04-14T04:16:13.952Z,1010.48
2018-04-14T04:17:13.915Z,1010.54
2018-04-14T04:18:13.919Z,1010.55
2018-04-14T04:19:13.861Z,1010.54
2018-04-14T04:20:13.840Z,1010.60
2018-04-14T04:21:13.862Z,1010.55
2018-04-14T04:22:13.787Z,1010.56
2018-04-14T04:23:13.749Z,1010.53
2018-04-14T04:24:13.745Z,1010.53
2018-04-14T04:25:13.700Z,1010.51
2018-04-14T04:26:13.680Z,1010.54
2018-04-14T04:27:13.684Z,1010.56
2018-04-14T04:28:13.642Z,1010.61
2018-04-14T04:29:13.585Z,1010.59
2018-04-14T04:30:13.570Z,1010.59
2018-04-14T04:31:13.560Z,1010.64
2018-04-14T04:32:13.495Z,1010.58
2018-04-14T04:33:13.476Z,1010.63
2018-04-14T04:34:13.446Z,1010.64
2018-04-14T04:35:13.423Z,1010.62
2018-04-14T04:36:13.396Z,1010.65
2018-04-14T04:37:13.366Z,1010.69
2018-04-14T04:38:13.335Z,1010.75
2018-04-14T04:39:13.335Z,1010.78
2018-04-14T04:40:13.278Z,1010.79
2018-04-14T04:41:13.247Z,1010.78
2018-04-14T04:42:13.243Z,1010.83
2018-04-14T04:43:13.186Z,1010.88
2018-04-14T04:44:13.166Z,1010.93
2018-04-14T04:45:13.143Z,1010.91
2018-04-14T04:46:13.112Z,1010.93
2018-04-14T04:47:13.081Z,1010.91
2018-04-14T04:48:13.054Z,1010.92
2018-04-14T04:49:13.022Z,1010.84
2018-04-14T04:50:13.007Z,1010.88
2018-04-14T04:51:12.977Z,1010.84
2018-04-14T04:52:12.944Z,1010.85
2018-04-14T04:53:12.922Z,1010.89
2018-04-14T04:54:12.890Z,1010.89
2018-04-14T04:55:12.859Z,1011.00
2018-04-14T04:56:12.834Z,1010.96
2018-04-14T04:57:12.807Z,1011.02
2018-04-14T04:58:12.770Z,1011.02
2018-04-14T04:59:12.742Z,1011.05
2018-04-14T05:00:12.718Z,1011.05
2018-04-14T05:01:12.688Z,1011.07
2018-04-14T05:02:12.657Z,1011.10
2018-04-14T05:03:12.627Z,1011.09
2018-04-14T05:04:12.609Z,1011.09
2018-04-14T05:05:12.622Z,1011.16
2018-04-14T05:06:12.547Z,1011.17
2018-04-14T05:07:12.520Z,1011.19
2018-04-14T05:08:12.499Z,1011.18
2018-04-14T05:09:12.466Z,1011.18
2018-04-14T05:10:12.451Z,1011.19
2018-04-14T05:11:12.412Z,1011.18
2018-04-14T05:12:12.380Z,1011.21
2018-04-14T05:13:12.352Z,1011.24
2018-04-14T05:14:12.329Z,1011.23
2018-04-14T05:15:12.301Z,1011.21
2018-04-14T05:16:12.262Z,1011.23
2018-04-14T05:17:12.250Z,1011.23
2018-04-14T05:18:12.214Z,1011.20
2018-04-14T05:19:12.188Z,1011.16
2018-04-14T05:20:12.162Z,1011.15
2018-04-14T05:21:12.124Z,1011.15
2018-04-14T05:22:12.103Z,1011.17
2018-04-14T05:23:12.082Z,1011.19
2018-04-14T05:24:12.081Z,1011.22
2018-04-14T05:25:12.022Z,1011.28
2018-04-14T05:26:11.991Z,1011.28
2018-04-14T05:27:11.965Z,1011.29
2018-04-14T05:28:11.931Z,1011.30
2018-04-14T05:29:11.911Z,1011.21
2018-04-14T05:30:11.882Z,1011.23
2018-04-14T05:31:11.848Z,1011.22
2018-04-14T05:32:11.817Z,1011.22
2018-04-14T05:33:11.786Z,1011.24
2018-04-14T05:34:11.805Z,1011.28
2018-04-14T05:35:11.747Z,1011.30
2018-04-14T05:36:11.710Z,1011.34
2018-04-14T05:37:11.770Z,1011.35
2018-04-14T05:38:11.659Z,1011.40
2018-04-14T05:39:11.632Z,1011.41
2018-04-14T05:40:11.601Z,1011.44
2018-04-14T05:41:11.568Z,1011.42
2018-04-14T05:42:11.541Z,1011.47
2018-04-14T05:43:11.588Z,1011.42
2018-04-14T05:44:11.488Z,1011.41
2018-04-14T05:45:11.461Z,1011.42
2018-04-14T05:46:11.456Z,1011.46
2018-04-14T05:47:11.398Z,1011.52
2018-04-14T05:48:11.375Z,1011.50
2018-04-14T05:49:11.369Z,1011.47
2018-04-14T05:50:11.318Z,1011.50
2018-04-14T05:51:11.293Z,1011.48
2018-04-14T05:52:11.275Z,1011.46
2018-04-14T05:53:11.239Z,1011.50
2018-04-14T05:54:11.209Z,1011.49
2018-04-14T05:55:11.181Z,1011.52
2018-04-14T05:56:11.153Z,1011.50
2018-04-14T05:57:11.124Z,1011.51
2018-04-14T05:58:11.175Z,1011.54
2018-04-14T05:59:11.134Z,1011.60
2018-04-14T06:00:11.063Z,1011.60
2018-04-14T06:01:11.017Z,1011.64
2018-04-14T06:02:11.048Z,1011.61
2018-04-14T06:03:10.955Z,1011.62
2018-04-14T06:04:10.969Z,1011.63
2018-04-14T06:05:11.104Z,1011.62
2018-04-14T06:06:11.032Z,1011.64
2018-04-14T06:07:10.902Z,1011.65
2018-04-14T06:08:10.818Z,1011.71
2018-04-14T06:09:10.812Z,1011.69
2018-04-14T06:10:10.762Z,1011.71
2018-04-14T06:11:10.739Z,1011.70
2018-04-14T06:12:10.704Z,1011.70
2018-04-14T06:13:10.726Z,1011.73
2018-04-14T06:14:10.654Z,1011.72
2018-04-14T06:15:10.877Z,1011.75
2018-04-14T06:16:10.665Z,1011.75
2018-04-14T06:17:10.652Z,1011.78
2018-04-14T06:18:10.624Z,1011.77
2018-04-14T06:19:10.517Z,1011.72
2018-04-14T06:20:10.486Z,1011.69
2018-04-14T06:21:10.467Z,1011.73
2018-04-14T06:22:10.605Z,1011.76
2018-04-14T06:23:10.415Z,1011.70
2018-04-14T06:24:10.386Z,1011.73
2018-04-14T06:25:10.352Z,1011.73
2018-04-14T06:26:10.331Z,1011.75
2018-04-14T06:27:10.293Z,1011.79
2018-04-14T06:28:10.281Z,1011.82
2018-04-14T06:29:10.241Z,1011.84
2018-04-14T06:30:10.207Z,1011.84
2018-04-14T06:31:10.189Z,1011.89
2018-04-14T06:32:10.151Z,1011.91
2018-04-14T06:33:10.211Z,1011.89
2018-04-14T06:34:10.096Z,1011.96
2018-04-14T06:35:10.072Z,1011.92
2018-04-14T06:36:10.047Z,1011.92
2018-04-14T06:37:10.018Z,1011.90
2018-04-14T06:38:10.050Z,1011.92
2018-04-14T06:39:09.972Z,1011.96
2018-04-14T06:40:09.937Z,1011.94
2018-04-14T06:41:09.911Z,1011.95
2018-04-14T06:42:09.913Z,1011.97
2018-04-14T06:43:09.866Z,1011.98
2018-04-14T06:44:09.896Z,1012.01
2018-04-14T06:45:09.903Z,1012.00
2018-04-14T06:46:09.776Z,1012.01
2018-04-14T06:47:09.808Z,1012.02
2018-04-14T06:48:09.791Z,1012.08
2018-04-14T06:49:09.700Z,1012.09
2018-04-14T06:50:09.726Z,1012.12
2018-04-14T06:51:09.641Z,1012.12
2018-04-14T06:52:09.707Z,1012.13
2018-04-14T06:53:09.601Z,1012.16
2018-04-14T06:54:09.564Z,1012.15
2018-04-14T06:55:09.537Z,1012.21
2018-04-14T06:56:09.505Z,1012.21
2018-04-14T06:57:09.517Z,1012.23
2018-04-14T06:58:09.446Z,1012.23
2018-04-14T06:59:09.450Z,1012.24
2018-04-14T07:00:09.398Z,1012.23
2018-04-14T07:01:09.447Z,1012.25
2018-04-14T07:02:09.358Z,1012.26
2018-04-14T07:03:09.315Z,1012.23
2018-04-14T07:04:09.283Z,1012.24
2018-04-14T07:05:09.909Z,1012.22
2018-04-14T07:06:09.303Z,1012.26
2018-04-14T07:07:09.198Z,1012.25
2018-04-14T07:08:09.351Z,1012.30
2018-04-14T07:09:09.247Z,1012.29
2018-04-14T07:10:09.137Z,1012.34
2018-04-14T07:11:09.131Z,1012.32
2018-04-14T07:12:09.185Z,1012.35
2018-04-14T07:13:09.302Z,1012.39
2018-04-14T07:14:09.189Z,1012.36
2018-04-14T07:15:08.993Z,1012.39
2018-04-14T07:16:08.964Z,1012.41
2018-04-14T07:17:09.019Z,1012.44
2018-04-14T07:18:09.004Z,1012.46
2018-04-14T07:19:08.975Z,1012.48
2018-04-14T07:20:09.081Z,1012.48
2018-04-14T07:21:08.984Z,1012.46
2018-04-14T07:22:08.872Z,1012.50
2018-04-14T07:23:08.780Z,1012.50
2018-04-14T07:24:08.915Z,1012.49
2018-04-14T07:25:09.062Z,1012.50
2018-04-14T07:26:08.761Z,1012.51
2018-04-14T07:27:08.837Z,1012.53
2018-04-14T07:28:08.663Z,1012.57
2018-04-14T07:29:08.717Z,1012.58
2018-04-14T07:30:08.662Z,1012.59
2018-04-14T07:31:08.565Z,1012.61
2018-04-14T07:32:08.731Z,1012.64
2018-04-14T07:33:08.557Z,1012.62
2018-04-14T07:34:08.776Z,1012.62
2018-04-14T07:35:08.974Z,1012.66
2018-04-14T07:36:09.031Z,1012.65
2018-04-14T07:37:09.268Z,1012.68
2018-04-14T07:38:08.496Z,1012.68
2018-04-14T07:39:08.368Z,1012.64
2018-04-14T07:40:08.310Z,1012.70
2018-04-14T07:41:08.410Z,1012.70
2018-04-14T07:42:08.475Z,1012.73
2018-04-14T07:43:08.235Z,1012.74
2018-04-14T07:44:08.374Z,1012.73
2018-04-14T07:45:08.180Z,1012.76
2018-04-14T07:46:08.193Z,1012.75
2018-04-14T07:47:08.131Z,1012.78
2018-04-14T07:48:08.150Z,1012.76
2018-04-14T07:49:08.109Z,1012.78
2018-04-14T07:50:08.215Z,1012.80
2018-04-14T07:51:08.090Z,1012.80
2018-04-14T07:52:08.057Z,1012.82
2018-04-14T07:53:07.972Z,1012.83
2018-04-14T07:54:07.942Z,1012.83
2018-04-14T07:55:08.051Z,1012.87
2018-04-14T07:56:07.888Z,1012.89
2018-04-14T07:57:07.883Z,1012.88
2018-04-14T07:58:07.833Z,1012.91
2018-04-14T07:59:07.830Z,1012.89
2018-04-14T08:00:07.872Z,1012.93
2018-04-14T08:01:07.866Z,1012.95
2018-04-14T08:03:55.071Z,1012.95
2018-04-14T08:04:54.517Z,1012.99
2018-04-14T08:07:12.794Z,1013.07
2018-04-14T08:08:02.324Z,1013.09
2018-04-14T08:10:02.884Z,1013.12
2018-04-14T08:11:02.921Z,1013.11
2018-04-14T08:13:08.808Z,1013.16
2018-04-14T08:14:08.734Z,1013.10
2018-04-14T08:16:13.559Z,1013.08
2018-04-14T08:17:13.355Z,1013.08
2018-04-14T08:19:11.762Z,1013.04
2018-04-14T08:20:11.747Z,1013.07
2018-04-14T08:22:18.799Z,1013.04
2018-04-14T08:23:17.949Z,1013.02
2018-04-14T08:24:17.498Z,1013.05
2018-04-14T08:25:17.431Z,1013.05
2018-04-14T08:26:17.421Z,1013.01
2018-04-14T08:27:17.391Z,1013.07
2018-04-14T08:28:17.356Z,1013.06
2018-04-14T08:29:17.348Z,1013.02
2018-04-14T08:30:17.312Z,1013.06
2018-04-14T08:31:17.273Z,1013.07
2018-04-14T08:32:19.179Z,1013.04
2018-04-14T08:33:17.209Z,1013.08
2018-04-14T08:34:17.363Z,1013.10
2018-04-14T08:35:17.374Z,1013.05
2018-04-14T08:36:17.159Z,1013.07
2018-04-14T08:37:17.165Z,1013.09
2018-04-14T08:38:17.093Z,1013.12
2018-04-14T08:39:17.131Z,1013.14
2018-04-14T08:40:17.078Z,1013.18
2018-04-14T08:41:17.018Z,1013.18
2018-04-14T08:42:17.083Z,1013.17
2018-04-14T08:43:16.958Z,1013.19
2018-04-14T08:44:16.930Z,1013.22
2018-04-14T08:45:16.926Z,1013.23
2018-04-14T08:46:16.925Z,1013.24
2018-04-14T08:47:16.866Z,1013.19
2018-04-14T08:48:19.612Z,1013.23
2018-04-14T08:49:16.811Z,1013.20
2018-04-14T08:50:16.802Z,1013.21
2018-04-14T08:51:16.870Z,1013.20
2018-04-14T08:52:16.752Z,1013.22
2018-04-14T08:53:16.721Z,1013.25
2018-04-14T08:54:16.714Z,1013.25
2018-04-14T08:55:17.857Z,1013.22
2018-04-14T08:56:16.679Z,1013.25
2018-04-14T08:57:16.604Z,1013.28
2018-04-14T08:58:16.604Z,1013.26
2018-04-14T08:59:16.557Z,1013.29
2018-04-14T09:00:16.597Z,1013.32
2018-04-14T09:01:16.654Z,1013.28
2018-04-14T09:02:16.769Z,1013.29
2018-04-14T09:03:16.471Z,1013.31
2018-04-14T09:04:16.440Z,1013.28
2018-04-14T09:05:16.477Z,1013.29
2018-04-14T09:06:16.385Z,1013.29
2018-04-14T09:07:16.355Z,1013.35
2018-04-14T09:08:16.571Z,1013.35
2018-04-14T09:09:16.298Z,1013.35
2018-04-14T09:10:16.356Z,1013.31
2018-04-14T09:11:16.299Z,1013.35
2018-04-14T09:12:16.378Z,1013.36
2018-04-14T09:13:16.337Z,1013.40
2018-04-14T09:14:16.225Z,1013.37
2018-04-14T09:15:16.170Z,1013.36
2018-04-14T09:16:16.335Z,1013.39
2018-04-14T09:17:16.133Z,1013.38
2018-04-14T09:18:16.146Z,1013.37
2018-04-14T09:19:17.133Z,1013.43
2018-04-14T09:20:16.146Z,1013.35
2018-04-14T09:21:16.057Z,1013.35
2018-04-14T09:22:16.056Z,1013.36
2018-04-14T09:23:15.943Z,1013.34
2018-04-14T09:24:15.990Z,1013.33
2018-04-14T09:25:15.905Z,1013.38
2018-04-14T09:26:15.942Z,1013.40
2018-04-14T09:27:15.851Z,1013.43
2018-04-14T09:28:15.822Z,1013.37
2018-04-14T09:29:15.808Z,1013.37
2018-04-14T09:30:15.840Z,1013.41
2018-04-14T09:31:15.800Z,1013.35
2018-04-14T09:32:15.867Z,1013.43
2018-04-14T09:33:15.767Z,1013.40
2018-04-14T09:34:15.777Z,1013.46
2018-04-14T09:35:15.664Z,1013.41
2018-04-14T09:36:15.626Z,1013.43
2018-04-14T09:37:15.601Z,1013.42
2018-04-14T09:38:15.653Z,1013.41
2018-04-14T09:39:15.712Z,1013.38
2018-04-14T09:40:15.526Z,1013.42
2018-04-14T09:41:15.520Z,1013.40
2018-04-14T09:42:15.537Z,1013.40
2018-04-14T09:43:15.538Z,1013.41
2018-04-14T09:44:15.418Z,1013.43
2018-04-14T09:45:15.514Z,1013.46
2018-04-14T09:46:15.432Z,1013.45
2018-04-14T09:47:15.349Z,1013.49
2018-04-14T09:48:15.328Z,1013.47
2018-04-14T09:49:15.310Z,1013.45
2018-04-14T09:50:15.293Z,1013.46
2018-04-14T09:51:15.252Z,1013.47
2018-04-14T09:52:15.249Z,1013.42
2018-04-14T09:53:15.352Z,1013.46
2018-04-14T09:54:16.271Z,1013.47
2018-04-14T09:55:15.145Z,1013.41
2018-04-14T09:56:15.159Z,1013.42
2018-04-14T09:57:15.100Z,1013.39
2018-04-14T09:58:15.072Z,1013.41
2018-04-14T09:59:15.055Z,1013.41
2018-04-14T10:00:15.023Z,1013.45
2018-04-14T10:01:14.997Z,1013.42
2018-04-14T10:02:15.040Z,1013.44
2018-04-14T10:03:14.977Z,1013.44
2018-04-14T10:04:14.926Z,1013.41
2018-04-14T10:05:14.910Z,1013.43
2018-04-14T10:06:14.915Z,1013.40
2018-04-14T10:07:14.854Z,1013.44
2018-04-14T10:08:14.863Z,1013.43
2018-04-14T10:09:14.879Z,1013.43
2018-04-14T10:10:14.910Z,1013.44
2018-04-14T10:11:14.800Z,1013.46
2018-04-14T10:12:14.733Z,1013.44
2018-04-14T10:13:14.715Z,1013.42
2018-04-14T10:14:14.917Z,1013.42
2018-04-14T10:15:14.660Z,1013.45
2018-04-14T10:16:14.660Z,1013.40
2018-04-14T10:17:14.615Z,1013.35
2018-04-14T10:18:14.652Z,1013.41
2018-04-14T10:19:14.565Z,1013.39
2018-04-14T10:20:16.196Z,1013.37
2018-04-14T10:21:16.161Z,1013.32
2018-04-14T10:22:14.536Z,1013.38
2018-04-14T10:23:14.556Z,1013.34
2018-04-14T10:24:14.489Z,1013.32
2018-04-14T10:25:16.365Z,1013.33
2018-04-14T10:26:14.468Z,1013.34
2018-04-14T10:27:14.402Z,1013.37
2018-04-14T10:28:14.682Z,1013.37
2018-04-14T10:29:14.341Z,1013.37
2018-04-14T10:30:14.319Z,1013.37
2018-04-14T10:31:14.375Z,1013.38
2018-04-14T10:32:14.266Z,1013.36
2018-04-14T10:33:14.230Z,1013.32
2018-04-14T10:34:14.332Z,1013.30
2018-04-14T10:35:14.174Z,1013.30
2018-04-14T10:36:16.361Z,1013.31
2018-04-14T10:37:14.175Z,1013.32
2018-04-14T10:38:14.162Z,1013.36
2018-04-14T10:39:14.081Z,1013.42
2018-04-14T10:40:14.047Z,1013.42
2018-04-14T10:41:14.321Z,1013.44
2018-04-14T10:42:14.077Z,1013.48
2018-04-14T10:43:14.596Z,1013.44
2018-04-14T10:44:15.703Z,1013.47
2018-04-14T10:45:13.998Z,1013.43
2018-04-14T10:46:15.642Z,1013.48
2018-04-14T10:47:13.900Z,1013.42
2018-04-14T10:48:13.923Z,1013.49
2018-04-14T10:49:13.837Z,1013.45
2018-04-14T10:50:13.805Z,1013.44
2018-04-14T10:51:13.861Z,1013.42
2018-04-14T10:52:13.759Z,1013.43
2018-04-14T10:53:13.797Z,1013.44
2018-04-14T10:54:13.754Z,1013.42
2018-04-14T10:55:13.688Z,1013.51
2018-04-14T10:56:13.691Z,1013.45
2018-04-14T10:57:13.692Z,1013.36
2018-04-14T10:58:13.628Z,1013.40
2018-04-14T10:59:15.198Z,1013.39
2018-04-14T11:00:15.142Z,1013.39
2018-04-14T11:01:13.660Z,1013.36
2018-04-14T11:02:13.524Z,1013.35
2018-04-14T11:03:13.496Z,1013.35
2018-04-14T11:04:13.551Z,1013.33
2018-04-14T11:05:13.452Z,1013.29
2018-04-14T11:06:13.423Z,1013.33
2018-04-14T11:07:13.491Z,1013.34
2018-04-14T11:08:15.295Z,1013.31
2018-04-14T11:09:13.356Z,1013.33
2018-04-14T11:10:13.348Z,1013.35
2018-04-14T11:11:13.336Z,1013.28
2018-04-14T11:12:16.144Z,1013.32
2018-04-14T11:13:13.263Z,1013.33
2018-04-14T11:14:13.311Z,1013.35
2018-04-14T11:15:13.213Z,1013.34
2018-04-14T11:16:13.185Z,1013.34
2018-04-14T11:17:13.162Z,1013.35
2018-04-14T11:18:13.131Z,1013.32
2018-04-14T11:19:13.222Z,1013.36
2018-04-14T11:20:13.083Z,1013.33
2018-04-14T11:21:13.119Z,1013.32
2018-04-14T11:22:14.678Z,1013.26
2018-04-14T11:23:13.020Z,1013.27
2018-04-14T11:24:13.062Z,1013.25
2018-04-14T11:25:15.690Z,1013.26
2018-04-14T11:26:12.951Z,1013.31
2018-04-14T11:27:12.942Z,1013.34
2018-04-14T11:28:12.985Z,1013.39
2018-04-14T11:29:12.873Z,1013.32
2018-04-14T11:30:12.935Z,1013.31
2018-04-14T11:31:12.987Z,1013.34
2018-04-14T11:32:12.807Z,1013.34
2018-04-14T11:33:14.702Z,1013.31
2018-04-14T11:34:12.895Z,1013.39
2018-04-14T11:35:12.782Z,1013.38
2018-04-14T11:36:12.800Z,1013.33
2018-04-14T11:37:12.693Z,1013.29
2018-04-14T11:38:12.752Z,1013.31
2018-04-14T11:39:12.651Z,1013.33
2018-04-14T11:40:12.639Z,1013.36
2018-04-14T11:41:12.714Z,1013.32
2018-04-14T11:42:15.189Z,1013.35
2018-04-14T11:43:12.564Z,1013.33
2018-04-14T11:44:15.155Z,1013.33
2018-04-14T11:45:12.574Z,1013.31
2018-04-14T11:46:12.495Z,1013.36
2018-04-14T11:47:12.596Z,1013.35
2018-04-14T11:48:12.454Z,1013.42
2018-04-14T11:49:12.583Z,1013.42
2018-04-14T11:50:12.494Z,1013.39
2018-04-14T11:51:12.639Z,1013.42
2018-04-14T11:52:12.374Z,1013.39
2018-04-14T11:53:12.343Z,1013.42
2018-04-14T11:54:12.401Z,1013.39
2018-04-14T11:55:15.161Z,1013.44
2018-04-14T11:56:12.361Z,1013.41
2018-04-14T11:57:12.272Z,1013.39
2018-04-14T11:58:12.247Z,1013.42
2018-04-14T11:59:12.225Z,1013.40
2018-04-14T12:00:14.181Z,1013.39
2018-04-14T12:01:12.185Z,1013.43
2018-04-14T12:02:12.157Z,1013.41
2018-04-14T12:03:12.159Z,1013.39
2018-04-14T12:04:12.128Z,1013.40
2018-04-14T12:05:12.169Z,1013.35
2018-04-14T12:06:12.128Z,1013.37
2018-04-14T12:07:12.055Z,1013.41
2018-04-14T12:08:12.032Z,1013.43
2018-04-14T12:09:12.106Z,1013.38
2018-04-14T12:10:12.050Z,1013.38
2018-04-14T12:11:11.983Z,1013.35
2018-04-14T12:12:11.987Z,1013.39
2018-04-14T12:13:11.922Z,1013.40